Time;durP1;ratioP1;P1;durP2;ratioP2;P2;SDS_P1;SDS_P2;PMS_P1;PMS_P2;Temp;Humidity;BMP_temperature;BMP_pressure;BME280_temperature;BME280_humidity;BME280_pressure;Samples;Min_cycle;Max_cycle;Signal;HPM_P1;HPM_P2
2021/03/10 00:00:13;;;;;;;4.72;3.90;;;5.80;85.40;;;;;;5051683;28;20063;-78
2021/03/10 00:02:38;;;;;;;6.13;3.92;;;5.80;85.50;;;;;;5034631;28;20033;-78
2021/03/10 00:05:05;;;;;;;4.78;3.47;;;5.70;85.60;;;;;;5051378;28;20446;-78
2021/03/10 00:07:32;;;;;;;4.38;3.40;;;5.60;85.50;;;;;;5051284;28;20111;-78
2021/03/10 00:09:57;;;;;;;3.88;3.47;;;5.50;85.50;;;;;;5051594;28;20059;-78
2021/03/10 00:12:23;;;;;;;6.30;3.60;;;5.40;85.60;;;;;;5050808;28;20044;-78
2021/03/10 00:14:48;;;;;;;5.10;3.58;;;5.40;85.80;;;;;;5051877;28;20033;-78
2021/03/10 00:17:14;;;;;;;4.22;3.33;;;5.30;85.90;;;;;;5050172;28;20136;-78
2021/03/10 00:19:42;;;;;;;5.00;3.50;;;5.30;86.00;;;;;;5053727;28;20444;-78
2021/03/10 00:22:07;;;;;;;4.63;3.78;;;5.20;86.00;;;;;;5054175;28;20386;-78
2021/03/10 00:24:33;;;;;;;4.75;3.67;;;5.10;86.00;;;;;;5038128;28;20032;-78
2021/03/10 00:26:58;;;;;;;6.07;3.60;;;5.10;86.10;;;;;;5037726;28;20438;-78
2021/03/10 00:29:24;;;;;;;4.00;3.60;;;5.00;86.10;;;;;;5037910;28;20513;-78
2021/03/10 00:31:50;;;;;;;6.20;3.70;;;5.00;86.20;;;;;;5021383;28;20029;-78
2021/03/10 00:34:15;;;;;;;3.72;3.30;;;5.00;86.20;;;;;;5055012;28;20044;-78
2021/03/10 00:36:41;;;;;;;4.57;3.60;;;5.00;86.30;;;;;;5054861;28;20465;-78
2021/03/10 00:39:06;;;;;;;5.95;3.80;;;5.10;86.30;;;;;;5054884;28;20114;-78
2021/03/10 00:41:32;;;;;;;18.27;8.80;;;5.10;86.20;;;;;;5038161;28;20029;-78
2021/03/10 00:43:57;;;;;;;39.00;16.77;;;5.10;86.80;;;;;;5054791;28;20469;-78
2021/03/10 00:46:23;;;;;;;52.55;24.20;;;5.10;86.20;;;;;;5054382;28;20043;-78
2021/03/10 00:48:49;;;;;;;47.35;20.08;;;5.20;86.40;;;;;;5037949;28;20051;-79
2021/03/10 00:51:14;;;;;;;28.85;14.55;;;5.20;86.40;;;;;;5021537;28;20397;-79
2021/03/10 00:53:41;;;;;;;21.23;11.25;;;5.20;86.50;;;;;;5037832;28;20381;-79
2021/03/10 00:56:07;;;;;;;15.55;9.20;;;5.30;86.70;;;;;;5037985;28;20035;-79
2021/03/10 00:58:33;;;;;;;13.25;7.72;;;5.30;86.70;;;;;;5054566;28;20107;-79
2021/03/10 01:00:59;;;;;;;12.55;7.93;;;5.30;86.90;;;;;;5037908;28;20036;-79
2021/03/10 01:03:24;;;;;;;12.45;7.43;;;5.40;87.10;;;;;;5055510;28;20029;-79
2021/03/10 01:05:50;;;;;;;8.07;6.13;;;5.40;87.10;;;;;;5037835;28;20078;-79
2021/03/10 01:08:15;;;;;;;8.27;6.32;;;5.50;87.10;;;;;;5054200;28;20025;-79
2021/03/10 01:10:41;;;;;;;11.57;7.00;;;5.50;87.00;;;;;;5054507;28;20037;-79
2021/03/10 01:13:07;;;;;;;10.82;6.93;;;5.60;87.10;;;;;;5054356;28;20040;-79
2021/03/10 01:15:33;;;;;;;9.77;6.63;;;5.60;87.00;;;;;;5055413;28;20032;-79
2021/03/10 01:17:59;;;;;;;11.88;7.00;;;5.60;87.30;;;;;;5037632;28;20029;-79
2021/03/10 01:20:26;;;;;;;10.30;7.15;;;5.60;87.50;;;;;;5037799;28;20039;-79
2021/03/10 01:22:52;;;;;;;9.40;7.72;;;5.70;87.70;;;;;;5037364;28;20048;-79
2021/03/10 01:25:19;;;;;;;10.27;7.60;;;5.70;87.80;;;;;;5053988;28;20477;-79
2021/03/10 01:27:44;;;;;;;11.23;7.70;;;5.70;88.10;;;;;;5053868;28;20025;-79
2021/03/10 01:30:12;;;;;;;8.63;6.43;;;5.70;87.70;;;;;;5037478;28;20056;-79
2021/03/10 01:32:38;;;;;;;7.97;6.43;;;5.70;87.60;;;;;;5053804;28;20123;-79
2021/03/10 01:35:05;;;;;;;8.63;6.13;;;5.80;87.50;;;;;;5053793;28;20025;-79
2021/03/10 01:37:31;;;;;;;7.25;6.30;;;5.70;87.50;;;;;;5053945;28;20028;-79
2021/03/10 01:39:57;;;;;;;8.02;6.22;;;5.80;87.60;;;;;;5055009;28;20065;-79
2021/03/10 01:42:23;;;;;;;8.52;6.25;;;5.70;87.60;;;;;;5053535;28;20029;-79
2021/03/10 01:44:49;;;;;;;8.25;6.20;;;5.70;87.60;;;;;;5054663;28;20029;-79
2021/03/10 01:47:16;;;;;;;8.88;5.80;;;5.70;87.60;;;;;;5054975;28;20044;-80
2021/03/10 01:49:41;;;;;;;8.18;5.82;;;5.60;87.60;;;;;;5053467;28;20063;-79
2021/03/10 01:52:08;;;;;;;7.43;5.85;;;5.60;87.70;;;;;;5053300;28;20052;-79
2021/03/10 01:54:34;;;;;;;11.55;6.28;;;5.60;87.80;;;;;;5036735;28;20033;-79
2021/03/10 01:57:01;;;;;;;9.23;6.25;;;5.50;87.80;;;;;;5055346;28;20392;-79
2021/03/10 01:59:27;;;;;;;7.78;5.85;;;5.50;87.90;;;;;;5053325;28;20536;-79
2021/03/10 02:01:52;;;;;;;8.15;5.90;;;5.40;87.80;;;;;;5053048;28;20036;-79
2021/03/10 02:04:20;;;;;;;10.50;6.22;;;5.40;87.90;;;;;;5053029;28;20079;-79
2021/03/10 02:06:50;;;;;;;7.88;6.80;;;5.40;88.00;;;;;;5051673;28;20108;-79
2021/03/10 02:09:34;;;;;;;9.88;6.47;;;5.30;88.10;;;;;;5053069;28;20059;-79
2021/03/10 02:12:10;;;;;;;7.70;6.05;;;5.30;88.20;;;;;;5052536;28;20025;-79
2021/03/10 02:14:36;;;;;;;8.88;6.10;;;5.20;88.20;;;;;;5053456;28;20040;-79
2021/03/10 02:17:06;;;;;;;10.07;6.88;;;5.20;88.10;;;;;;5053289;28;20028;-79
2021/03/10 02:19:50;;;;;;;7.85;6.93;;;5.20;88.10;;;;;;5053431;28;20086;-79
2021/03/10 02:22:16;;;;;;;7.80;6.38;;;5.20;88.30;;;;;;5038771;28;20024;-79
2021/03/10 02:25:32;;;;;;;9.43;6.35;;;5.20;88.20;;;;;;5054070;28;20020;-79
2021/03/10 02:28:00;;;;;;;7.78;6.40;;;5.20;88.30;;;;;;5027621;28;20389;-79
2021/03/10 02:30:36;;;;;;;9.90;6.78;;;5.10;88.20;;;;;;5052815;28;20052;-80
2021/03/10 02:33:07;;;;;;;10.23;6.57;;;5.10;88.30;;;;;;5052491;28;20119;-79
2021/03/10 02:35:34;;;;;;;9.40;6.70;;;5.10;88.30;;;;;;5052984;28;20039;-79
2021/03/10 02:38:02;;;;;;;10.30;6.40;;;5.10;89.00;;;;;;5019598;28;20029;-79
2021/03/10 02:40:30;;;;;;;8.52;6.57;;;5.10;88.40;;;;;;5053705;28;20029;-79
2021/03/10 02:42:57;;;;;;;7.30;6.35;;;5.10;88.30;;;;;;5052133;28;20040;-79
2021/03/10 02:45:26;;;;;;;9.02;6.97;;;5.10;88.30;;;;;;5052214;28;20028;-79
2021/03/10 02:47:52;;;;;;;9.20;7.22;;;5.10;88.50;;;;;;5052887;28;20425;-79
2021/03/10 02:50:18;;;;;;;8.32;6.80;;;5.00;88.30;;;;;;5052290;28;20041;-79
2021/03/10 02:52:45;;;;;;;8.13;6.80;;;5.00;88.40;;;;;;5052454;28;20056;-79
2021/03/10 02:55:11;;;;;;;9.30;7.47;;;5.00;88.30;;;;;;5053590;28;20116;-79
2021/03/10 02:57:37;;;;;;;11.35;8.00;;;5.00;88.40;;;;;;5053247;28;20036;-79
2021/03/10 03:00:13;;;;;;;8.85;7.40;;;4.90;88.40;;;;;;5035630;28;20477;-79
2021/03/10 03:02:39;;;;;;;10.40;7.53;;;4.90;88.60;;;;;;5051638;28;20470;-79
2021/03/10 03:05:06;;;;;;;11.27;8.65;;;5.00;88.60;;;;;;5052553;28;20052;-79
2021/03/10 03:07:32;;;;;;;10.13;8.63;;;5.00;88.70;;;;;;5052000;28;20029;-79
2021/03/10 03:10:00;;;;;;;10.68;8.05;;;5.00;88.80;;;;;;5019226;28;20036;-79
2021/03/10 03:12:27;;;;;;;10.80;8.15;;;5.00;88.80;;;;;;5033504;28;20026;-79
2021/03/10 03:14:55;;;;;;;11.65;9.07;;;5.10;88.80;;;;;;5032239;28;20029;-79
2021/03/10 03:17:21;;;;;;;11.50;8.63;;;5.00;88.80;;;;;;5032111;28;20127;-79
2021/03/10 03:19:46;;;;;;;12.70;9.32;;;5.10;88.80;;;;;;5032246;28;20037;-79
2021/03/10 03:22:14;;;;;;;10.63;8.38;;;5.10;88.80;;;;;;5021177;28;20047;-79
2021/03/10 03:24:41;;;;;;;15.60;9.38;;;5.00;88.80;;;;;;5052009;28;20380;-79
2021/03/10 03:27:08;;;;;;;13.23;9.25;;;5.10;88.90;;;;;;5052781;28;20118;-79
2021/03/10 03:29:34;;;;;;;13.63;9.50;;;5.10;88.90;;;;;;5051612;28;20037;-79
2021/03/10 03:32:00;;;;;;;13.25;9.38;;;5.10;88.90;;;;;;5051313;28;20540;-78
2021/03/10 03:34:26;;;;;;;12.50;9.00;;;5.20;89.00;;;;;;5051507;28;20037;-79
2021/03/10 03:36:53;;;;;;;16.17;10.15;;;5.20;89.00;;;;;;5051861;28;20501;-79
2021/03/10 03:39:20;;;;;;;13.40;9.88;;;5.30;89.10;;;;;;5051330;28;20087;-79
2021/03/10 03:41:47;;;;;;;13.10;10.07;;;5.20;89.10;;;;;;5053006;28;20032;-79
2021/03/10 03:44:13;;;;;;;13.07;9.70;;;5.20;89.00;;;;;;5035149;28;20071;-79
2021/03/10 03:46:39;;;;;;;13.85;10.40;;;5.20;89.10;;;;;;5052652;28;20017;-78
2021/03/10 03:49:05;;;;;;;13.50;10.48;;;5.30;89.20;;;;;;5052738;28;20025;-79
2021/03/10 03:51:31;;;;;;;14.52;10.80;;;5.30;89.70;;;;;;5034790;28;20064;-79
2021/03/10 03:54:03;;;;;;;16.23;10.57;;;5.30;89.10;;;;;;5054307;28;20021;-79
2021/03/10 03:56:29;;;;;;;15.43;10.50;;;5.40;89.90;;;;;;5055664;28;20024;-79
2021/03/10 03:58:55;;;;;;;17.00;12.40;;;5.30;89.20;;;;;;5038690;28;20168;-79
2021/03/10 04:01:21;;;;;;;15.55;11.30;;;5.40;89.20;;;;;;5055293;28;20525;-79
2021/03/10 04:03:47;;;;;;;16.15;11.18;;;5.40;89.30;;;;;;5056525;28;20030;-79
2021/03/10 04:06:14;;;;;;;14.85;10.75;;;5.40;89.30;;;;;;5055077;28;20063;-79
2021/03/10 04:08:41;;;;;;;16.83;11.35;;;5.40;89.30;;;;;;5055358;28;20025;-79
2021/03/10 04:11:09;;;;;;;16.20;11.00;;;5.40;89.90;;;;;;5038740;28;20087;-79
2021/03/10 04:13:34;;;;;;;17.95;11.50;;;5.40;89.40;;;;;;5056374;28;20091;-79
2021/03/10 04:16:00;;;;;;;15.32;11.57;;;5.40;89.30;;;;;;5055416;28;20029;-79
2021/03/10 04:18:25;;;;;;;16.48;11.52;;;5.40;89.30;;;;;;5038488;28;20033;-79
2021/03/10 04:20:51;;;;;;;19.05;12.40;;;5.50;89.40;;;;;;5055091;28;20032;-78
2021/03/10 04:23:17;;;;;;;19.45;12.95;;;5.50;89.40;;;;;;5056334;28;20086;-77
2021/03/10 04:25:43;;;;;;;21.35;13.18;;;5.50;89.40;;;;;;5056558;28;20025;-77
2021/03/10 04:28:09;;;;;;;18.17;12.13;;;5.50;89.40;;;;;;5054663;28;20025;-77
2021/03/10 04:30:34;;;;;;;18.38;12.18;;;5.50;89.50;;;;;;5055116;28;20517;-77
2021/03/10 04:33:00;;;;;;;18.10;12.00;;;5.50;89.50;;;;;;5055343;28;20114;-77
2021/03/10 04:35:26;;;;;;;17.25;13.05;;;5.50;89.50;;;;;;5038329;28;20025;-77
2021/03/10 04:37:52;;;;;;;18.10;13.63;;;5.50;89.60;;;;;;5055010;28;20025;-77
2021/03/10 04:40:18;;;;;;;19.98;12.73;;;5.50;89.60;;;;;;5054689;28;20025;-77
2021/03/10 04:42:44;;;;;;;18.42;12.80;;;5.50;89.60;;;;;;5055859;28;20021;-77
2021/03/10 04:45:12;;;;;;;17.90;12.95;;;5.60;89.70;;;;;;5055559;28;20045;-77
2021/03/10 04:47:39;;;;;;;21.55;13.07;;;5.60;89.70;;;;;;5054730;28;20025;-77
2021/03/10 04:50:06;;;;;;;22.38;13.07;;;5.50;89.70;;;;;;5054319;28;20035;-77
2021/03/10 04:52:32;;;;;;;23.50;14.13;;;5.50;89.70;;;;;;5037346;28;20049;-77
2021/03/10 04:54:57;;;;;;;19.52;14.50;;;5.60;89.80;;;;;;5055054;28;20370;-79
2021/03/10 04:57:23;;;;;;;23.73;14.07;;;5.60;89.90;;;;;;5037907;28;20087;-79
2021/03/10 04:59:49;;;;;;;20.58;13.93;;;5.60;90.00;;;;;;5037659;28;20033;-79
2021/03/10 05:02:14;;;;;;;22.95;14.55;;;5.60;90.00;;;;;;5054545;28;20386;-79
2021/03/10 05:04:40;;;;;;;23.10;15.45;;;5.60;90.00;;;;;;5036977;28;20379;-79
2021/03/10 05:07:06;;;;;;;20.25;14.07;;;5.60;90.00;;;;;;5056416;28;20029;-79
2021/03/10 05:09:31;;;;;;;22.88;14.68;;;5.60;90.00;;;;;;5064551;28;20547;-79
2021/03/10 05:11:58;;;;;;;22.33;15.55;;;5.60;90.00;;;;;;5037403;28;20398;-79
2021/03/10 05:14:24;;;;;;;22.50;15.10;;;5.60;90.00;;;;;;5055334;28;20048;-79
2021/03/10 05:16:50;;;;;;;23.83;15.77;;;5.70;90.00;;;;;;5037080;28;20021;-79
2021/03/10 05:19:16;;;;;;;23.17;15.43;;;5.70;90.00;;;;;;5037087;28;20040;-79
2021/03/10 05:21:41;;;;;;;23.05;15.73;;;5.70;90.00;;;;;;5037028;28;20501;-79
2021/03/10 05:24:08;;;;;;;27.23;16.83;;;5.70;90.00;;;;;;5054802;28;20036;-79
2021/03/10 05:26:36;;;;;;;22.88;15.63;;;5.70;90.10;;;;;;5053655;28;20469;-79
2021/03/10 05:29:02;;;;;;;25.60;15.93;;;5.70;90.10;;;;;;5055226;28;20062;-79
2021/03/10 05:31:27;;;;;;;22.20;14.98;;;5.70;90.10;;;;;;5036954;28;20029;-79
2021/03/10 05:33:53;;;;;;;21.75;15.35;;;5.60;90.10;;;;;;5020692;28;20051;-79
2021/03/10 05:36:21;;;;;;;26.88;15.82;;;5.70;90.10;;;;;;5036829;28;20029;-79
2021/03/10 05:38:47;;;;;;;23.75;16.27;;;5.60;90.20;;;;;;5053507;28;20539;-79
2021/03/10 05:41:14;;;;;;;24.05;17.00;;;5.50;90.10;;;;;;5053137;28;20040;-80
2021/03/10 05:43:40;;;;;;;25.20;16.30;;;5.50;90.20;;;;;;5053484;28;20029;-79
2021/03/10 05:46:06;;;;;;;24.42;16.75;;;5.50;90.50;;;;;;5053626;28;20432;-80
2021/03/10 05:48:31;;;;;;;24.00;16.45;;;5.50;90.60;;;;;;5053186;28;20028;-80
2021/03/10 05:50:57;;;;;;;29.58;18.00;;;5.50;90.30;;;;;;5037032;28;20060;-79
2021/03/10 05:53:28;;;;;;;27.45;17.10;;;5.50;90.30;;;;;;5036052;28;20060;-80
2021/03/10 05:55:54;;;;;;;31.10;18.02;;;5.50;90.30;;;;;;5053493;28;20397;-79
2021/03/10 05:58:20;;;;;;;30.92;19.30;;;5.50;90.30;;;;;;5054301;28;20420;-79
2021/03/10 06:00:46;;;;;;;31.20;19.65;;;5.50;90.30;;;;;;5053175;28;20025;-79
2021/03/10 06:03:12;;;;;;;28.58;19.30;;;5.50;90.30;;;;;;5054253;28;20082;-79
2021/03/10 06:05:38;;;;;;;33.28;20.08;;;5.50;90.30;;;;;;5052923;28;20014;-79
2021/03/10 06:08:06;;;;;;;34.25;21.05;;;5.50;90.40;;;;;;5053419;28;20488;-79
2021/03/10 06:10:40;;;;;;;40.97;23.95;;;5.50;90.40;;;;;;5085985;28;20052;-79
2021/03/10 06:13:20;;;;;;;47.65;27.00;;;5.50;90.50;;;;;;5049217;28;20109;-79
2021/03/10 06:15:46;;;;;;;56.05;30.45;;;5.50;90.50;;;;;;5052237;28;20070;-79
2021/03/10 06:18:25;;;;;;;49.42;29.40;;;5.50;90.50;;;;;;5052332;28;20059;-79
2021/03/10 06:21:16;;;;;;;45.63;27.35;;;5.50;90.60;;;;;;5053607;28;20086;-79
2021/03/10 06:24:01;;;;;;;49.80;28.92;;;5.60;90.60;;;;;;5053486;28;20021;-79
2021/03/10 06:26:28;;;;;;;46.35;26.98;;;5.60;90.60;;;;;;5052370;28;20035;-79
2021/03/10 06:28:55;;;;;;;43.17;26.60;;;5.60;90.60;;;;;;5035949;28;20111;-79
2021/03/10 06:31:26;;;;;;;50.25;27.83;;;5.60;90.60;;;;;;5036075;28;20056;-79
2021/03/10 06:34:05;;;;;;;48.45;29.20;;;5.70;90.70;;;;;;5053971;28;20033;-79
2021/03/10 06:36:32;;;;;;;55.03;30.60;;;5.70;90.70;;;;;;5053882;28;20355;-79
2021/03/10 06:38:59;;;;;;;57.50;31.35;;;5.70;90.60;;;;;;5036006;28;20029;-79
2021/03/10 06:41:29;;;;;;;61.30;33.25;;;5.70;90.60;;;;;;5052414;28;20080;-79
2021/03/10 06:43:55;;;;;;;61.65;33.90;;;5.80;90.70;;;;;;5036003;28;20029;-79
2021/03/10 06:46:21;;;;;;;65.10;34.05;;;5.80;90.70;;;;;;5052244;28;20029;-81
2021/03/10 06:49:01;;;;;;;70.45;36.60;;;5.80;90.70;;;;;;5053534;28;20621;-79
2021/03/10 06:51:30;;;;;;;69.03;37.03;;;5.80;90.70;;;;;;5051948;28;20048;-79
2021/03/10 06:53:56;;;;;;;69.60;38.67;;;5.80;90.70;;;;;;5035906;28;20029;-79
2021/03/10 06:56:27;;;;;;;71.65;39.40;;;5.90;90.70;;;;;;5053584;28;20389;-79
2021/03/10 06:59:00;;;;;;;80.10;40.53;;;5.90;90.70;;;;;;5053280;28;20056;-79
2021/03/10 07:01:27;;;;;;;68.28;37.30;;;5.90;90.80;;;;;;5053135;28;20107;-79
2021/03/10 07:03:56;;;;;;;62.45;35.97;;;6.00;90.70;;;;;;5052806;28;20032;-79
2021/03/10 07:06:23;;;;;;;66.60;37.95;;;6.00;90.70;;;;;;5051987;28;20028;-79
2021/03/10 07:08:49;;;;;;;64.50;36.88;;;6.10;90.70;;;;;;5035497;28;20087;-79
2021/03/10 07:11:14;;;;;;;69.43;40.30;;;6.00;90.70;;;;;;5035363;28;20524;-79
2021/03/10 07:13:42;;;;;;;62.15;37.80;;;6.10;90.70;;;;;;5035249;28;20038;-79
2021/03/10 07:16:09;;;;;;;64.00;38.42;;;6.10;90.70;;;;;;5052018;28;20029;-79
2021/03/10 07:18:36;;;;;;;63.65;37.97;;;6.10;90.70;;;;;;5052037;28;20170;-79
2021/03/10 07:21:03;;;;;;;67.80;39.45;;;6.20;90.70;;;;;;5051954;28;20025;-78
2021/03/10 07:23:31;;;;;;;62.58;36.50;;;6.20;90.70;;;;;;5051875;28;20025;-77
2021/03/10 07:26:02;;;;;;;62.70;37.72;;;6.20;90.70;;;;;;5053374;28;20029;-78
2021/03/10 07:28:33;;;;;;;59.85;37.17;;;6.20;90.70;;;;;;5052366;28;20033;-78
2021/03/10 07:30:59;;;;;;;63.67;37.78;;;6.30;90.70;;;;;;5052178;28;20119;-78
2021/03/10 07:33:25;;;;;;;64.40;39.17;;;6.30;90.60;;;;;;5051889;28;20120;-79
2021/03/10 07:35:56;;;;;;;59.15;36.05;;;6.40;90.60;;;;;;5035345;28;20401;-79
2021/03/10 07:38:24;;;;;;;61.40;36.80;;;6.40;90.50;;;;;;5051847;28;20021;-79
2021/03/10 07:41:19;;;;;;;60.45;37.08;;;6.40;90.80;;;;;;5051594;28;20082;-78
2021/03/10 07:43:50;;;;;;;56.53;35.83;;;6.50;90.50;;;;;;5030465;28;20410;-79
2021/03/10 07:46:23;;;;;;;54.60;35.00;;;6.50;90.40;;;;;;5052813;28;20096;-79
2021/03/10 07:48:49;;;;;;;52.65;34.10;;;6.50;90.40;;;;;;5051404;28;20029;-77
2021/03/10 07:51:36;;;;;;;69.97;39.28;;;6.60;90.30;;;;;;5034690;28;20048;-76
2021/03/10 07:54:14;;;;;;;57.67;35.97;;;6.60;90.30;;;;;;5050584;28;20120;-77
2021/03/10 07:56:40;;;;;;;56.25;35.15;;;6.60;90.30;;;;;;5052709;28;20025;-77
2021/03/10 07:59:08;;;;;;;56.22;34.80;;;6.60;90.20;;;;;;5051655;28;20029;-77
2021/03/10 08:01:34;;;;;;;60.63;34.65;;;6.70;90.20;;;;;;5052949;28;20032;-77
2021/03/10 08:04:11;;;;;;;60.90;36.47;;;6.60;90.10;;;;;;5034913;28;20029;-77
2021/03/10 08:06:48;;;;;;;59.70;33.83;;;6.70;90.10;;;;;;5035528;28;20405;-77
2021/03/10 08:09:15;;;;;;;56.42;36.20;;;6.70;90.10;;;;;;5037851;28;20017;-77
2021/03/10 08:11:44;;;;;;;59.97;36.88;;;6.70;90.10;;;;;;5051031;28;20052;-77
2021/03/10 08:14:12;;;;;;;60.50;34.95;;;6.80;90.00;;;;;;5032712;28;20108;-77
2021/03/10 08:16:45;;;;;;;55.60;34.17;;;6.80;90.00;;;;;;5047824;28;20033;-77
2021/03/10 08:19:11;;;;;;;57.28;35.47;;;6.80;90.00;;;;;;5038244;28;20025;-77
2021/03/10 08:22:07;;;;;;;60.38;34.67;;;6.80;89.80;;;;;;5052382;28;20112;-77
2021/03/10 08:24:35;;;;;;;57.78;34.63;;;6.90;89.90;;;;;;5026954;28;20134;-77
2021/03/10 08:27:02;;;;;;;52.43;32.87;;;6.90;89.80;;;;;;5048774;28;20389;-77
2021/03/10 08:29:31;;;;;;;59.83;35.40;;;7.00;90.10;;;;;;5051268;28;20033;-77
2021/03/10 08:31:57;;;;;;;58.92;35.50;;;7.00;89.50;;;;;;5052253;28;20039;-77
2021/03/10 08:34:37;;;;;;;55.55;33.33;;;7.00;89.60;;;;;;5051198;28;20123;-77
2021/03/10 08:37:08;;;;;;;62.55;35.97;;;7.00;89.40;;;;;;5034560;28;20033;-77
2021/03/10 08:39:40;;;;;;;54.10;35.63;;;7.10;89.30;;;;;;5053266;28;20432;-77
2021/03/10 08:42:06;;;;;;;57.60;34.33;;;7.10;89.10;;;;;;5055774;28;20025;-78
2021/03/10 08:44:39;;;;;;;53.63;34.13;;;7.10;89.00;;;;;;5054831;28;20108;-78
2021/03/10 08:47:14;;;;;;;55.17;33.90;;;7.20;89.00;;;;;;5054875;28;20029;-78
2021/03/10 08:49:42;;;;;;;55.40;33.38;;;7.20;88.70;;;;;;5054698;28;20082;-78
2021/03/10 08:52:09;;;;;;;50.55;31.75;;;7.20;88.50;;;;;;5054378;28;20071;-79
2021/03/10 08:55:04;;;;;;;52.30;32.67;;;7.30;88.50;;;;;;5055965;28;20381;-78
2021/03/10 08:57:32;;;;;;;52.90;31.23;;;7.30;88.40;;;;;;5045590;28;20508;-78
2021/03/10 08:59:58;;;;;;;58.45;33.33;;;7.40;88.20;;;;;;5055803;28;20032;-80
2021/03/10 09:02:29;;;;;;;57.28;31.98;;;7.40;88.00;;;;;;5037897;28;20029;-78
2021/03/10 09:04:55;;;;;;;55.03;33.58;;;7.40;87.90;;;;;;5054484;28;20112;-78
2021/03/10 09:07:22;;;;;;;51.88;31.50;;;7.50;87.70;;;;;;5038129;28;20096;-78
2021/03/10 09:09:57;;;;;;;51.28;31.52;;;7.50;87.60;;;;;;5037257;28;20159;-79
2021/03/10 09:12:23;;;;;;;50.65;30.50;;;7.60;87.60;;;;;;5055612;28;20056;-78
2021/03/10 09:14:50;;;;;;;50.33;30.10;;;7.70;87.40;;;;;;5054254;28;20090;-78
2021/03/10 09:17:15;;;;;;;46.25;29.58;;;7.70;87.20;;;;;;5037106;28;20044;-80
2021/03/10 09:19:45;;;;;;;45.95;30.05;;;7.80;87.20;;;;;;5054194;28;20032;-80
2021/03/10 09:22:22;;;;;;;52.17;30.10;;;7.90;87.00;;;;;;5055645;28;20036;-77
2021/03/10 09:25:08;;;;;;;49.63;27.48;;;7.90;86.70;;;;;;5078788;28;20115;-77
2021/03/10 09:27:34;;;;;;;41.28;26.30;;;8.10;86.80;;;;;;5054953;28;20051;-76
2021/03/10 09:30:07;;;;;;;44.70;26.02;;;8.20;86.30;;;;;;5037355;28;20500;-77
2021/03/10 09:32:43;;;;;;;42.60;25.13;;;8.30;86.00;;;;;;5053758;28;20060;-78
2021/03/10 09:35:10;;;;;;;41.47;26.00;;;8.40;85.70;;;;;;5040366;28;20516;-77
2021/03/10 09:37:43;;;;;;;39.42;25.58;;;8.50;85.20;;;;;;5053385;28;20032;-77
2021/03/10 09:40:09;;;;;;;36.40;24.10;;;8.50;84.70;;;;;;5053421;28;20033;-77
2021/03/10 09:42:35;;;;;;;38.15;24.83;;;8.60;84.60;;;;;;5053531;28;20435;-77
2021/03/10 09:45:01;;;;;;;37.15;25.10;;;8.70;84.40;;;;;;5036584;28;20021;-77
2021/03/10 09:47:26;;;;;;;38.30;24.33;;;8.70;84.00;;;;;;5020469;28;20659;-77
2021/03/10 09:49:53;;;;;;;39.35;24.25;;;8.80;83.80;;;;;;5053315;28;20025;-77
2021/03/10 09:52:39;;;;;;;37.42;23.38;;;8.80;83.20;;;;;;5054328;28;20060;-77
2021/03/10 09:55:10;;;;;;;39.05;23.63;;;8.90;82.60;;;;;;5053619;28;20029;-77
2021/03/10 09:57:36;;;;;;;31.50;20.83;;;8.90;82.40;;;;;;5054964;28;20880;-77
2021/03/10 10:00:16;;;;;;;34.95;22.40;;;9.00;82.40;;;;;;5036892;28;20112;-76
2021/03/10 10:02:45;;;;;;;32.15;21.40;;;9.00;82.10;;;;;;5053378;28;20100;-77
2021/03/10 10:05:19;;;;;;;33.08;21.77;;;9.00;82.00;;;;;;5053104;28;20033;-77
2021/03/10 10:07:45;;;;;;;34.47;22.67;;;9.10;81.90;;;;;;5053232;28;20025;-77
2021/03/10 10:10:10;;;;;;;31.92;22.00;;;9.10;81.50;;;;;;5036341;28;20029;-77
2021/03/10 10:12:50;;;;;;;33.15;22.67;;;9.20;81.50;;;;;;5052824;28;20497;-77
2021/03/10 10:15:18;;;;;;;34.08;21.85;;;9.20;81.50;;;;;;5054221;28;20104;-77
2021/03/10 10:17:46;;;;;;;36.75;23.17;;;9.30;81.20;;;;;;5054437;28;20078;-77
2021/03/10 10:20:14;;;;;;;31.33;22.15;;;9.40;81.70;;;;;;5054116;28;20025;-78
2021/03/10 10:22:40;;;;;;;35.13;21.17;;;9.50;80.50;;;;;;5036476;28;20025;-78
2021/03/10 10:25:06;;;;;;;33.05;21.83;;;9.50;80.30;;;;;;5054189;28;20021;-78
2021/03/10 10:27:32;;;;;;;34.88;22.10;;;9.60;80.00;;;;;;5052663;28;20017;-78
2021/03/10 10:29:58;;;;;;;30.95;21.00;;;9.60;79.80;;;;;;5054214;28;20043;-78
2021/03/10 10:32:23;;;;;;;31.60;21.60;;;9.70;79.60;;;;;;5053083;28;20036;-78
2021/03/10 10:34:50;;;;;;;28.83;20.27;;;9.70;79.40;;;;;;5052709;28;20071;-78
2021/03/10 10:37:17;;;;;;;33.67;19.95;;;9.70;79.20;;;;;;5052553;28;20025;-77
2021/03/10 10:39:43;;;;;;;29.25;19.15;;;9.80;78.70;;;;;;5052021;28;20032;-77
2021/03/10 10:42:09;;;;;;;30.08;19.30;;;9.80;78.90;;;;;;5052501;28;20060;-77
2021/03/10 10:44:34;;;;;;;29.40;19.63;;;9.90;78.40;;;;;;5035614;28;20053;-77
2021/03/10 10:47:00;;;;;;;32.92;20.75;;;10.00;78.20;;;;;;5035881;28;20025;-77
2021/03/10 10:49:26;;;;;;;26.92;19.15;;;10.00;77.50;;;;;;5035633;28;20033;-77
2021/03/10 10:51:51;;;;;;;29.17;18.45;;;10.10;77.10;;;;;;5035528;28;20049;-78
2021/03/10 10:54:17;;;;;;;28.58;19.15;;;10.10;76.30;;;;;;5035681;28;20056;-78
2021/03/10 10:56:43;;;;;;;24.52;17.67;;;10.10;76.30;;;;;;5052026;28;20421;-80
2021/03/10 10:59:08;;;;;;;28.45;20.35;;;10.10;75.60;;;;;;5035683;28;20040;-80
2021/03/10 11:01:34;;;;;;;30.30;21.73;;;10.00;74.30;;;;;;5035010;28;20033;-80
2021/03/10 11:03:59;;;;;;;27.25;18.52;;;10.10;73.90;;;;;;5062973;28;20060;-80
2021/03/10 11:06:25;;;;;;;24.30;17.35;;;10.10;74.00;;;;;;5072260;28;20028;-80
2021/03/10 11:08:51;;;;;;;29.92;20.33;;;10.10;73.80;;;;;;5073398;28;20028;-79
2021/03/10 11:11:16;;;;;;;24.80;18.45;;;10.20;73.40;;;;;;5042387;28;20055;-80
2021/03/10 11:13:42;;;;;;;29.55;21.63;;;10.30;73.20;;;;;;5052121;28;20025;-80
2021/03/10 11:16:08;;;;;;;31.17;18.33;;;10.40;73.00;;;;;;5052012;28;20048;-80
2021/03/10 11:18:34;;;;;;;26.83;16.35;;;10.50;72.20;;;;;;5035586;28;20028;-78
2021/03/10 11:20:59;;;;;;;23.40;15.77;;;10.40;72.00;;;;;;5051460;28;20040;-78
2021/03/10 11:23:25;;;;;;;19.13;14.52;;;10.40;71.70;;;;;;5053317;28;20033;-78
2021/03/10 11:25:50;;;;;;;21.70;15.05;;;10.40;71.10;;;;;;5052063;28;20551;-78
2021/03/10 11:28:16;;;;;;;21.27;14.95;;;10.50;71.40;;;;;;5053173;28;20026;-78
2021/03/10 11:30:42;;;;;;;20.73;13.77;;;10.50;71.50;;;;;;5051331;28;20115;-78
2021/03/10 11:33:07;;;;;;;24.10;14.05;;;10.50;71.30;;;;;;5035157;28;20033;-78
2021/03/10 11:35:33;;;;;;;17.65;13.05;;;10.60;71.10;;;;;;5051793;28;20430;-78
2021/03/10 11:37:59;;;;;;;19.58;13.52;;;10.50;71.50;;;;;;5035219;28;20028;-78
2021/03/10 11:40:25;;;;;;;18.80;13.23;;;10.50;70.70;;;;;;5051728;28;20108;-78
2021/03/10 11:42:50;;;;;;;24.13;13.43;;;10.50;70.70;;;;;;5034899;28;20120;-78
2021/03/10 11:45:16;;;;;;;20.58;13.02;;;10.60;70.30;;;;;;5052689;28;20035;-78
2021/03/10 11:47:42;;;;;;;18.38;12.68;;;10.60;70.50;;;;;;5035035;28;20489;-78
2021/03/10 11:50:08;;;;;;;16.67;11.98;;;10.60;70.90;;;;;;5051407;28;20032;-78
2021/03/10 11:52:34;;;;;;;20.45;13.27;;;10.60;70.80;;;;;;5051376;28;20056;-78
2021/03/10 11:55:00;;;;;;;19.30;12.38;;;10.70;70.40;;;;;;5051312;28;20045;-78
2021/03/10 11:57:26;;;;;;;19.70;12.13;;;10.70;69.60;;;;;;5051368;28;20512;-78
2021/03/10 11:59:51;;;;;;;17.15;12.85;;;10.80;69.80;;;;;;5046883;28;20151;-78
2021/03/10 12:02:17;;;;;;;17.30;12.02;;;10.80;69.80;;;;;;5034333;28;20098;-78
2021/03/10 12:04:43;;;;;;;17.58;11.48;;;10.90;69.70;;;;;;5034621;28;20030;-78
2021/03/10 12:07:08;;;;;;;14.98;11.35;;;10.90;69.10;;;;;;5034545;28;20029;-78
2021/03/10 12:09:34;;;;;;;14.70;11.02;;;10.90;69.60;;;;;;5050827;28;20366;-88
2021/03/10 12:12:00;;;;;;;17.40;12.02;;;10.90;69.70;;;;;;5028080;28;20104;-87
2021/03/10 12:14:26;;;;;;;14.43;11.25;;;10.90;68.80;;;;;;5048628;28;20038;-87
2021/03/10 12:16:52;;;;;;;18.08;11.52;;;10.90;68.90;;;;;;5052347;28;20021;-86
2021/03/10 12:19:18;;;;;;;15.90;11.02;;;10.90;68.90;;;;;;5068972;28;20024;-87
2021/03/10 12:21:44;;;;;;;18.25;11.93;;;11.00;69.00;;;;;;5052190;28;20481;-87
2021/03/10 12:24:10;;;;;;;20.55;10.88;;;10.90;68.00;;;;;;5053092;28;20033;-87
2021/03/10 12:26:36;;;;;;;18.17;11.05;;;11.00;68.10;;;;;;5035371;28;20032;-88
2021/03/10 12:29:01;;;;;;;16.17;10.60;;;10.90;67.50;;;;;;5035019;28;20032;-87
2021/03/10 12:31:27;;;;;;;12.93;10.10;;;10.90;67.50;;;;;;5068567;28;20395;-86
2021/03/10 12:33:53;;;;;;;13.02;10.35;;;11.00;67.70;;;;;;5051304;28;20029;-87
2021/03/10 12:36:19;;;;;;;17.42;10.20;;;11.00;66.30;;;;;;5019102;28;20379;-87
2021/03/10 12:38:44;;;;;;;14.70;10.13;;;11.10;67.20;;;;;;5051610;28;20055;-87
2021/03/10 12:41:10;;;;;;;14.20;10.15;;;11.10;66.40;;;;;;5034671;28;20041;-87
2021/03/10 12:43:36;;;;;;;18.23;9.80;;;11.20;66.60;;;;;;5034542;28;20033;-87